Time;durP1;ratioP1;P1;durP2;ratioP2;P2;SDS_P1;SDS_P2;PMS_P1;PMS_P2;Temp;Humidity;BMP_temperature;BMP_pressure;BME280_temperature;BME280_humidity;BME280_pressure;Samples;Min_cycle;Max_cycle;Signal;HPM_P1;HPM_P2
2023/05/05 00:00:20;;;;;;;5.43;3.40;;;;;;;15.53;100.00;100645.44;686593;28;1183;-73
2023/05/05 00:00:41;;;;;;;5.78;3.53;;;;;;;15.51;100.00;100649.91;683824;28;1232;-74
2023/05/05 00:01:02;;;;;;;5.23;3.60;;;;;;;15.50;100.00;100648.16;681644;28;1391;-73
2023/05/05 00:01:22;;;;;;;4.97;3.40;;;;;;;15.48;100.00;100656.09;687027;28;1185;-73
2023/05/05 00:01:42;;;;;;;5.95;3.58;;;;;;;15.47;100.00;100650.88;685867;28;2281;-73
2023/05/05 00:02:03;;;;;;;5.00;3.60;;;;;;;15.47;100.00;100648.25;687358;28;1281;-73
2023/05/05 00:02:23;;;;;;;5.57;3.67;;;;;;;15.46;100.00;100646.50;687951;28;4330;-73
2023/05/05 00:02:43;;;;;;;4.95;3.35;;;;;;;15.45;100.00;100647.41;684690;28;1266;-73
2023/05/05 00:03:04;;;;;;;5.27;3.40;;;;;;;15.44;100.00;100638.66;683619;28;1293;-73
2023/05/05 00:03:25;;;;;;;5.75;3.47;;;;;;;15.44;100.00;100643.06;686116;28;2399;-74
2023/05/05 00:03:46;;;;;;;5.50;3.33;;;;;;;15.42;100.00;100637.81;686918;28;1349;-74
2023/05/05 00:04:06;;;;;;;4.60;3.67;;;;;;;15.39;100.00;100637.03;686135;28;2553;-73
2023/05/05 00:04:27;;;;;;;4.73;3.87;;;;;;;15.39;100.00;100644.94;684200;28;1208;-74
2023/05/05 00:04:47;;;;;;;4.70;3.35;;;;;;;15.39;100.00;100639.66;681890;28;2631;-73
2023/05/05 00:05:08;;;;;;;4.90;3.50;;;;;;;15.39;100.00;100639.66;687059;28;1295;-73
2023/05/05 00:05:29;;;;;;;4.30;3.17;;;;;;;15.36;100.00;100653.78;685764;28;4297;-74
2023/05/05 00:05:56;;;;;;;5.07;3.30;;;;;;;15.34;100.00;100639.78;682075;28;1018;-73
2023/05/05 00:06:17;;;;;;;5.07;3.42;;;;;;;15.32;100.00;100639.81;683975;28;2533;-73
2023/05/05 00:06:41;;;;;;;5.18;3.55;;;;;;;15.32;100.00;100645.06;685944;28;1386;-73
2023/05/05 00:07:02;;;;;;;4.93;3.60;;;;;;;15.32;100.00;100647.69;684356;28;896;-74
2023/05/05 00:07:26;;;;;;;4.68;3.35;;;;;;;15.32;100.00;100645.06;681616;28;1260;-73
2023/05/05 00:07:49;;;;;;;4.85;3.38;;;;;;;15.31;100.00;100646.00;682340;28;1362;-73
2023/05/05 00:08:10;;;;;;;5.18;3.60;;;;;;;15.28;100.00;100640.78;686992;28;1297;-73
2023/05/05 00:08:32;;;;;;;5.10;3.75;;;;;;;15.33;100.00;100648.59;684819;28;4315;-73
2023/05/05 00:08:53;;;;;;;5.03;3.72;;;;;;;15.32;100.00;100634.53;682151;28;1275;-73
2023/05/05 00:09:14;;;;;;;4.82;3.55;;;;;;;15.33;100.00;100661.75;686602;28;909;-74
2023/05/05 00:09:37;;;;;;;5.45;3.70;;;;;;;15.28;100.00;100634.66;679166;29;1415;-74
2023/05/05 00:09:58;;;;;;;5.88;3.70;;;;;;;15.29;100.00;100645.16;682444;28;2329;-74
2023/05/05 00:10:19;;;;;;;5.27;3.60;;;;;;;15.25;100.00;100659.28;684244;28;1254;-74
2023/05/05 00:10:41;;;;;;;4.47;3.45;;;;;;;15.24;100.00;100644.38;684638;28;1923;-73
2023/05/05 00:11:01;;;;;;;5.00;3.72;;;;;;;15.24;100.00;100660.19;683173;28;1452;-73
2023/05/05 00:11:22;;;;;;;5.63;3.60;;;;;;;15.25;100.00;100647.91;685285;28;4340;-73
2023/05/05 00:11:42;;;;;;;6.03;3.67;;;;;;;15.23;100.00;100649.69;687718;28;1193;-73
2023/05/05 00:12:03;;;;;;;5.73;3.77;;;;;;;15.21;100.00;100636.56;682676;28;1155;-73
2023/05/05 00:12:23;;;;;;;5.70;4.05;;;;;;;15.20;100.00;100636.63;686793;28;1190;-74
2023/05/05 00:12:44;;;;;;;5.37;3.60;;;;;;;15.20;100.00;100655.03;688011;28;1280;-73
2023/05/05 00:13:05;;;;;;;5.03;3.65;;;;;;;15.18;100.00;100667.41;684423;28;960;-73
2023/05/05 00:13:26;;;;;;;4.60;3.30;;;;;;;15.19;100.00;100646.28;692428;28;2628;-73
2023/05/05 00:13:46;;;;;;;5.28;3.50;;;;;;;15.17;100.00;100658.63;686775;28;1332;-74
2023/05/05 00:14:07;;;;;;;5.23;3.70;;;;;;;15.16;100.00;100641.09;688537;28;794;-73
2023/05/05 00:14:27;;;;;;;5.18;3.50;;;;;;;15.15;100.00;100642.00;685670;28;4354;-74
2023/05/05 00:14:48;;;;;;;5.63;3.50;;;;;;;15.15;100.00;100648.13;679813;28;1375;-74
2023/05/05 00:15:08;;;;;;;5.47;3.67;;;;;;;15.14;100.00;100640.25;684812;28;1274;-74
2023/05/05 00:15:29;;;;;;;5.20;3.57;;;;;;;15.12;100.00;100637.66;683870;28;971;-73
2023/05/05 00:15:51;;;;;;;6.05;3.60;;;;;;;15.11;100.00;100645.59;685568;28;1067;-73
2023/05/05 00:16:11;;;;;;;5.40;3.50;;;;;;;15.09;100.00;100632.50;688844;28;892;-74
2023/05/05 00:16:32;;;;;;;5.00;3.57;;;;;;;15.09;100.00;100642.13;686881;28;2663;-73
2023/05/05 00:16:53;;;;;;;5.95;3.63;;;;;;;15.05;100.00;100651.88;685016;28;1162;-74
2023/05/05 00:17:13;;;;;;;5.20;3.95;;;;;;;15.04;100.00;100644.03;688650;28;4265;-73
2023/05/05 00:17:34;;;;;;;4.93;3.93;;;;;;;15.04;100.00;100638.78;689663;28;1245;-73
2023/05/05 00:17:54;;;;;;;4.60;3.47;;;;;;;15.03;100.00;100643.16;687333;28;935;-74
2023/05/05 00:18:16;;;;;;;5.03;3.53;;;;;;;15.03;100.00;100642.28;687262;28;1246;-73
2023/05/05 00:18:36;;;;;;;5.10;3.70;;;;;;;14.99;100.00;100641.50;686407;28;1283;-73
2023/05/05 00:18:58;;;;;;;5.13;3.75;;;;;;;14.97;100.00;100633.63;684180;28;2371;-73
2023/05/05 00:19:18;;;;;;;6.03;3.78;;;;;;;14.96;100.00;100637.16;688726;28;1410;-73
2023/05/05 00:19:40;;;;;;;5.53;3.60;;;;;;;14.93;100.00;100631.97;684650;28;1243;-73
2023/05/05 00:20:00;;;;;;;5.10;3.70;;;;;;;14.90;100.00;100639.94;681866;28;1226;-73
2023/05/05 00:20:21;;;;;;;4.88;3.50;;;;;;;14.90;100.00;100632.03;682331;28;4490;-73
2023/05/05 00:20:46;;;;;;;5.95;3.80;;;;;;;14.92;100.00;100638.13;685541;28;1164;-74
2023/05/05 00:21:07;;;;;;;6.28;3.80;;;;;;;14.92;100.00;100629.38;683002;28;1370;-74
2023/05/05 00:21:28;;;;;;;5.35;3.85;;;;;;;14.91;100.00;100633.78;683245;28;928;-74
2023/05/05 00:21:49;;;;;;;4.73;3.53;;;;;;;14.89;100.00;100632.94;684300;28;2260;-73
2023/05/05 00:22:10;;;;;;;4.55;3.40;;;;;;;14.88;100.00;100636.47;680032;28;1238;-73
2023/05/05 00:22:31;;;;;;;5.35;3.40;;;;;;;14.88;100.00;100633.84;684295;28;1218;-73
2023/05/05 00:22:51;;;;;;;4.85;3.58;;;;;;;14.88;100.00;100633.84;679186;28;1426;-73
2023/05/05 00:23:13;;;;;;;4.47;3.63;;;;;;;14.88;100.00;100639.09;685641;28;4310;-78
2023/05/05 00:23:33;;;;;;;5.35;3.60;;;;;;;14.88;100.00;100649.63;687427;28;1434;-73
2023/05/05 00:23:54;;;;;;;5.07;3.60;;;;;;;14.84;100.00;100639.22;687920;28;1377;-73
2023/05/05 00:24:15;;;;;;;5.85;3.70;;;;;;;14.84;100.00;100631.31;688890;28;1518;-74
2023/05/05 00:24:35;;;;;;;5.73;3.60;;;;;;;14.85;100.00;100644.44;686088;28;2696;-74
2023/05/05 00:24:56;;;;;;;5.65;3.67;;;;;;;14.82;100.00;100632.22;686207;28;1169;-73
2023/05/05 00:25:16;;;;;;;5.15;3.40;;;;;;;14.81;100.00;100630.50;689038;28;902;-73
2023/05/05 00:25:36;;;;;;;4.83;3.40;;;;;;;14.87;100.00;100631.25;685888;28;1297;-74
2023/05/05 00:25:57;;;;;;;4.97;3.70;;;;;;;14.88;100.00;100638.25;686351;28;1180;-73
2023/05/05 00:26:17;;;;;;;4.75;3.67;;;;;;;14.85;100.00;100639.19;685014;28;4276;-74
2023/05/05 00:26:42;;;;;;;5.32;3.50;;;;;;;14.83;100.00;100641.00;686244;28;1368;-73
2023/05/05 00:27:03;;;;;;;4.70;3.47;;;;;;;14.81;100.00;100638.41;683413;28;2269;-74
2023/05/05 00:27:23;;;;;;;5.75;3.60;;;;;;;14.80;100.00;100641.91;687992;28;1672;-73
2023/05/05 00:27:44;;;;;;;5.27;3.60;;;;;;;14.78;100.00;100638.44;687587;28;1084;-73
2023/05/05 00:28:04;;;;;;;5.07;3.75;;;;;;;14.78;100.00;100638.44;686153;28;1166;-73
2023/05/05 00:28:25;;;;;;;5.25;3.53;;;;;;;14.76;100.00;100628.84;683863;28;5408;-74
2023/05/05 00:28:50;;;;;;;6.43;3.50;;;;;;;14.73;100.00;100635.06;683070;28;1113;-73
2023/05/05 00:29:11;;;;;;;4.93;3.50;;;;;;;14.73;100.00;100636.81;686117;28;1186;-73
2023/05/05 00:29:32;;;;;;;5.38;3.60;;;;;;;14.72;100.00;100638.59;686425;28;4402;-73
2023/05/05 00:29:52;;;;;;;5.60;3.70;;;;;;;14.72;100.00;100637.75;682623;28;2591;-74
2023/05/05 00:30:13;;;;;;;5.43;3.60;;;;;;;14.75;100.00;100633.25;684686;28;1359;-73
2023/05/05 00:30:33;;;;;;;5.80;3.97;;;;;;;14.81;100.00;100634.88;684243;28;1415;-73
2023/05/05 00:30:54;;;;;;;5.47;3.72;;;;;;;14.81;100.00;100634.88;680122;28;1903;-73
2023/05/05 00:31:15;;;;;;;4.73;3.47;;;;;;;14.77;100.00;100634.09;684775;28;798;-73
2023/05/05 00:31:36;;;;;;;4.93;3.22;;;;;;;14.74;100.00;100631.53;682518;28;1430;-73
2023/05/05 00:31:57;;;;;;;5.03;3.50;;;;;;;14.71;100.00;100631.59;684824;28;1351;-73
2023/05/05 00:32:17;;;;;;;5.40;4.00;;;;;;;14.67;100.00;100629.94;686106;28;4395;-75
2023/05/05 00:32:38;;;;;;;5.35;3.78;;;;;;;14.64;100.00;100630.84;684279;28;1134;-73
2023/05/05 00:33:01;;;;;;;5.45;3.65;;;;;;;14.63;100.00;100634.41;686194;28;1353;-73
2023/05/05 00:33:22;;;;;;;4.85;3.53;;;;;;;14.62;100.00;100627.41;687511;28;1268;-73
2023/05/05 00:33:43;;;;;;;4.60;3.40;;;;;;;14.61;100.00;100633.53;688603;28;1360;-74
2023/05/05 00:34:03;;;;;;;4.72;3.42;;;;;;;14.60;100.00;100630.94;685907;28;1149;-73
2023/05/05 00:34:24;;;;;;;5.00;3.67;;;;;;;14.56;100.00;100656.44;686944;28;2565;-73
2023/05/05 00:34:45;;;;;;;5.35;3.70;;;;;;;14.56;100.00;100635.38;684466;28;1312;-74
2023/05/05 00:35:05;;;;;;;5.57;3.50;;;;;;;14.56;100.00;100627.50;683164;28;1235;-73
2023/05/05 00:35:26;;;;;;;4.67;3.50;;;;;;;14.55;100.00;100631.06;684668;28;4263;-73
2023/05/05 00:35:47;;;;;;;5.73;3.60;;;;;;;14.56;100.00;100627.50;686345;28;1366;-73
2023/05/05 00:36:08;;;;;;;5.13;3.70;;;;;;;14.55;100.00;100631.06;687475;28;1248;-74
2023/05/05 00:36:29;;;;;;;5.30;3.50;;;;;;;14.53;100.00;100632.84;690311;28;1247;-73
2023/05/05 00:36:50;;;;;;;5.60;3.80;;;;;;;14.55;100.00;100640.69;685823;28;1267;-74
2023/05/05 00:37:11;;;;;;;5.27;3.70;;;;;;;14.54;100.00;100641.56;689162;28;2480;-74
2023/05/05 00:37:31;;;;;;;4.70;3.60;;;;;;;14.53;100.00;100643.34;686809;28;1425;-73
2023/05/05 00:37:52;;;;;;;5.57;3.83;;;;;;;14.52;100.00;100646.03;689423;28;1107;-73
2023/05/05 00:38:12;;;;;;;7.05;3.80;;;;;;;14.51;100.00;100636.38;689020;28;4301;-74
2023/05/05 00:38:33;;;;;;;5.97;4.00;;;;;;;14.52;100.00;100639.00;691479;28;1232;-74
2023/05/05 00:38:53;;;;;;;5.87;4.03;;;;;;;14.52;100.00;100643.41;686050;28;1175;-74
2023/05/05 00:39:15;;;;;;;5.60;3.80;;;;;;;14.52;100.00;100635.50;684512;28;1201;-73
2023/05/05 00:39:35;;;;;;;6.07;4.07;;;;;;;14.50;100.00;100635.53;684117;28;1426;-74
2023/05/05 00:39:57;;;;;;;6.15;4.25;;;;;;;14.48;100.00;100634.69;682426;28;2660;-73
2023/05/05 00:40:17;;;;;;;6.70;4.18;;;;;;;14.46;100.00;100632.09;684338;28;1293;-73
2023/05/05 00:40:38;;;;;;;8.27;3.92;;;;;;;14.43;100.00;100632.16;681865;29;1172;-73
2023/05/05 00:40:58;;;;;;;5.33;4.10;;;;;;;14.42;100.00;100635.69;679984;29;1110;-73
2023/05/05 00:41:20;;;;;;;5.30;4.00;;;;;;;14.42;100.00;100634.84;683753;28;4297;-74
2023/05/05 00:41:41;;;;;;;4.80;3.70;;;;;;;14.42;100.00;100632.22;687228;28;1375;-73
2023/05/05 00:42:01;;;;;;;4.80;3.75;;;;;;;14.41;100.00;100631.34;685791;28;3655;-74
2023/05/05 00:42:23;;;;;;;5.37;3.93;;;;;;;14.42;100.00;100630.44;686749;28;2389;-73
2023/05/05 00:42:49;;;;;;;6.78;3.85;;;;;;;14.42;100.00;100633.06;687279;28;1089;-74
2023/05/05 00:43:11;;;;;;;5.00;3.60;;;;;;;14.41;100.00;100623.47;686213;28;945;-74
2023/05/05 00:43:32;;;;;;;5.60;4.07;;;;;;;14.42;100.00;100624.31;688049;28;865;-73
2023/05/05 00:43:52;;;;;;;5.28;3.60;;;;;;;14.45;100.00;100635.66;683315;28;1436;-73
2023/05/05 00:44:13;;;;;;;4.90;3.50;;;;;;;14.46;100.00;100633.88;685366;28;4348;-73
2023/05/05 00:44:38;;;;;;;4.88;3.47;;;;;;;14.44;100.00;100627.75;686070;28;1166;-73
2023/05/05 00:44:59;;;;;;;5.30;3.55;;;;;;;14.43;100.00;100631.31;685962;28;1278;-73
2023/05/05 00:45:19;;;;;;;5.60;3.70;;;;;;;14.43;100.00;100631.31;687451;28;806;-73
2023/05/05 00:45:43;;;;;;;5.40;3.57;;;;;;;14.41;100.00;100633.97;685529;28;1255;-74
2023/05/05 00:46:17;;;;;;;5.70;3.60;;;;;;;14.41;100.00;100633.09;684423;28;1272;-73
2023/05/05 00:46:39;;;;;;;5.93;3.80;;;;;;;14.41;100.00;100627.84;687754;28;1358;-74
2023/05/05 00:46:59;;;;;;;6.88;4.00;;;;;;;14.42;100.00;100632.22;685550;28;1106;-74
2023/05/05 00:47:20;;;;;;;5.57;4.00;;;;;;;14.41;100.00;100633.97;688232;28;4279;-73
2023/05/05 00:47:42;;;;;;;6.05;3.90;;;;;;;14.42;100.00;100629.56;689393;28;1324;-73
2023/05/05 00:48:03;;;;;;;5.43;3.67;;;;;;;14.42;100.00;100632.22;690742;28;1181;-73
2023/05/05 00:48:24;;;;;;;5.10;3.55;;;;;;;14.40;100.00;100633.97;690017;28;1042;-73
2023/05/05 00:48:45;;;;;;;5.53;3.63;;;;;;;14.39;100.00;100621.75;689828;28;1391;-74
2023/05/05 00:49:06;;;;;;;5.80;3.70;;;;;;;14.40;100.00;100631.34;684902;28;2535;-73
2023/05/05 00:49:26;;;;;;;6.37;3.67;;;;;;;14.39;100.00;100632.28;684489;28;881;-73
2023/05/05 00:49:47;;;;;;;6.40;3.80;;;;;;;14.37;100.00;100634.94;683295;28;1278;-73
2023/05/05 00:50:08;;;;;;;5.68;3.80;;;;;;;14.38;100.00;100633.16;685784;28;1184;-74
2023/05/05 00:50:30;;;;;;;6.60;3.80;;;;;;;14.37;100.00;100631.44;683963;28;4273;-73
2023/05/05 00:50:50;;;;;;;5.05;3.50;;;;;;;14.36;100.00;100633.19;684875;28;1967;-73
2023/05/05 00:51:12;;;;;;;5.70;3.85;;;;;;;14.35;100.00;100643.75;684984;28;920;-73
2023/05/05 00:51:33;;;;;;;5.63;3.80;;;;;;;14.35;100.00;100633.25;689293;28;1252;-74
2023/05/05 00:51:55;;;;;;;5.38;3.72;;;;;;;14.34;100.00;100637.63;689984;28;1196;-73
2023/05/05 00:52:15;;;;;;;5.03;3.72;;;;;;;14.31;100.00;100633.28;686130;28;1290;-73
2023/05/05 00:52:36;;;;;;;5.22;3.63;;;;;;;14.32;100.00;100636.78;686568;28;845;-73
2023/05/05 00:53:00;;;;;;;5.47;3.80;;;;;;;14.31;100.00;100628.00;689091;28;2277;-74
2023/05/05 00:53:22;;;;;;;4.78;3.72;;;;;;;14.33;100.00;100642.91;687174;28;4282;-74
2023/05/05 00:53:45;;;;;;;5.28;3.60;;;;;;;14.29;100.00;100635.09;689644;28;1200;-72
2023/05/05 00:54:06;;;;;;;5.68;3.70;;;;;;;14.26;100.00;100624.66;688369;28;1245;-73
2023/05/05 00:54:27;;;;;;;5.50;3.88;;;;;;;14.27;100.00;100636.91;687470;28;1294;-73
2023/05/05 00:54:50;;;;;;;5.27;3.70;;;;;;;14.25;100.00;100632.56;687016;28;1271;-73
2023/05/05 00:55:10;;;;;;;5.22;3.50;;;;;;;14.26;100.00;100632.53;684797;28;1293;-73
2023/05/05 00:55:33;;;;;;;4.90;3.60;;;;;;;14.25;100.00;100628.16;686010;28;1330;-74
2023/05/05 00:55:53;;;;;;;5.25;3.75;;;;;;;14.25;100.00;100633.41;684914;28;1212;-73
2023/05/05 00:56:18;;;;;;;5.65;3.85;;;;;;;14.29;100.00;100645.59;685707;28;4352;-73
2023/05/05 00:56:39;;;;;;;4.95;3.63;;;;;;;14.29;100.00;100644.75;689459;28;1259;-73
2023/05/05 00:57:01;;;;;;;5.40;3.90;;;;;;;14.27;100.00;100641.28;682792;28;1216;-73
2023/05/05 00:57:23;;;;;;;4.88;3.83;;;;;;;14.28;100.00;100643.00;685598;28;1342;-74
2023/05/05 00:57:44;;;;;;;5.85;4.10;;;;;;;14.28;100.00;100637.75;690210;28;1365;-73
2023/05/05 00:58:05;;;;;;;6.38;3.90;;;;;;;14.27;100.00;100636.00;687510;28;1153;-73
2023/05/05 00:58:25;;;;;;;5.15;3.97;;;;;;;14.27;100.00;100642.16;690361;28;1380;-73
2023/05/05 00:58:46;;;;;;;5.30;3.80;;;;;;;14.26;100.00;100629.91;690174;28;895;-73
2023/05/05 00:59:06;;;;;;;5.93;3.78;;;;;;;14.25;100.00;100633.41;682839;28;2240;-73
2023/05/05 00:59:31;;;;;;;5.30;3.65;;;;;;;14.23;100.00;100635.22;684610;28;4292;-74
2023/05/05 00:59:53;;;;;;;5.15;3.70;;;;;;;14.22;100.00;100644.00;682855;28;1220;-74
2023/05/05 01:00:15;;;;;;;6.20;3.72;;;;;;;14.22;100.00;100637.84;684262;28;901;-73
2023/05/05 01:00:36;;;;;;;5.85;3.80;;;;;;;14.20;100.00;100634.41;687663;28;1272;-73
2023/05/05 01:00:57;;;;;;;6.03;4.00;;;;;;;14.20;100.00;100640.53;683110;28;1156;-73
2023/05/05 01:01:17;;;;;;;5.33;3.80;;;;;;;14.19;100.00;100644.06;686013;28;1198;-74
2023/05/05 01:01:38;;;;;;;6.00;3.60;;;;;;;14.19;100.00;100643.19;684487;28;1288;-73
2023/05/05 01:01:59;;;;;;;4.90;3.60;;;;;;;14.17;100.00;100640.59;684843;28;2648;-73
2023/05/05 01:02:19;;;;;;;4.93;3.78;;;;;;;14.19;100.00;100636.19;686927;28;4274;-74
2023/05/05 01:02:40;;;;;;;5.43;4.07;;;;;;;14.21;100.00;100637.00;687780;28;1415;-73
2023/05/05 01:03:00;;;;;;;5.38;3.85;;;;;;;14.20;100.00;100634.41;686859;28;1228;-74
2023/05/05 01:03:21;;;;;;;5.10;3.50;;;;;;;14.19;100.00;100627.41;686948;28;1157;-73
2023/05/05 01:03:41;;;;;;;6.37;3.93;;;;;;;14.19;100.00;100633.56;688138;28;765;-73
2023/05/05 01:04:02;;;;;;;5.83;3.80;;;;;;;14.20;100.00;100630.00;686465;28;1465;-73
2023/05/05 01:04:24;;;;;;;6.13;4.20;;;;;;;14.13;100.00;100633.66;686812;28;2507;-73
2023/05/05 01:04:45;;;;;;;5.68;4.20;;;;;;;14.10;100.00;100637.22;681970;29;1232;-73
2023/05/05 01:05:09;;;;;;;5.93;4.33;;;;;;;14.10;100.00;100639.84;683911;28;900;-72
2023/05/05 01:05:45;;;;;;;6.13;4.15;;;;;;;14.06;100.00;100642.56;687233;28;4374;-73
2023/05/05 01:06:30;;;;;;;6.40;3.80;;;;;;;14.03;100.00;100637.38;684500;28;850;-73
2023/05/05 01:07:26;;;;;;;6.25;3.80;;;;;;;14.02;100.00;100633.00;686012;28;1116;-73
2023/05/05 01:08:01;;;;;;;5.38;3.95;;;;;;;14.02;100.00;100638.28;689789;28;1293;-73
2023/05/05 01:09:00;;;;;;;5.18;3.72;;;;;;;14.01;100.00;100640.03;689650;28;4337;-73
2023/05/05 01:09:38;;;;;;;6.00;3.95;;;;;;;13.96;100.00;100640.13;687250;28;1279;-73
2023/05/05 01:10:21;;;;;;;5.50;3.85;;;;;;;13.96;100.00;100641.88;690477;28;1089;-73
2023/05/05 01:10:51;;;;;;;5.40;3.63;;;;;;;13.93;100.00;100642.81;694027;28;1976;-74
2023/05/05 01:11:19;;;;;;;5.30;3.75;;;;;;;13.92;100.00;100635.81;693663;28;944;-73
2023/05/05 01:11:48;;;;;;;6.85;4.13;;;;;;;13.92;100.00;100640.22;690190;28;6291;-73
2023/05/05 01:12:17;;;;;;;5.28;3.90;;;;;;;13.93;100.00;100645.44;691888;28;836;-73
2023/05/05 01:12:38;;;;;;;5.20;3.88;;;;;;;13.91;100.00;100644.59;685079;28;1215;-73
2023/05/05 01:13:20;;;;;;;4.95;3.60;;;;;;;13.92;100.00;100638.44;684981;28;1176;-73
2023/05/05 01:14:10;;;;;;;6.05;4.18;;;;;;;13.90;100.00;100637.63;689378;28;1261;-73
2023/05/05 01:14:42;;;;;;;5.18;3.75;;;;;;;13.89;100.00;100638.50;690413;28;4967;-73
2023/05/05 01:15:32;;;;;;;6.07;3.83;;;;;;;13.86;100.00;100646.44;689082;28;1228;-74
2023/05/05 01:16:05;;;;;;;6.18;3.78;;;;;;;13.86;100.00;100638.56;686874;28;1272;-74
2023/05/05 01:16:32;;;;;;;5.40;3.70;;;;;;;13.84;100.00;100635.09;691232;28;880;-73
2023/05/05 01:16:57;;;;;;;4.97;3.83;;;;;;;13.86;100.00;100635.94;687869;28;1399;-73
2023/05/05 01:17:32;;;;;;;5.30;3.97;;;;;;;13.85;100.00;100636.81;691142;28;4358;-74
2023/05/05 01:18:08;;;;;;;5.28;3.70;;;;;;;13.82;100.00;100642.16;690907;28;978;-73
2023/05/05 01:18:46;;;;;;;5.60;3.78;;;;;;;13.82;100.00;100644.78;693760;28;1430;-73
2023/05/05 01:19:31;;;;;;;6.20;4.30;;;;;;;13.79;100.00;100634.34;687355;28;2279;-73
2023/05/05 01:20:01;;;;;;;6.00;3.92;;;;;;;13.77;100.00;100636.09;686215;28;1457;-74
2023/05/05 01:20:25;;;;;;;5.68;3.95;;;;;;;13.78;100.00;100635.22;689836;28;4320;-73
2023/05/05 01:20:52;;;;;;;5.32;3.80;;;;;;;13.76;100.00;100635.25;685511;28;1065;-73
2023/05/05 01:21:14;;;;;;;6.60;4.20;;;;;;;13.75;100.00;100637.91;686076;28;933;-73
2023/05/05 01:21:42;;;;;;;7.25;4.40;;;;;;;13.75;100.00;100630.03;685320;28;1337;-73
2023/05/05 01:22:08;;;;;;;5.82;4.07;;;;;;;13.72;100.00;100635.31;682608;28;1082;-73
2023/05/05 01:22:37;;;;;;;5.03;3.90;;;;;;;13.77;100.00;100641.34;682390;28;1513;-74
2023/05/05 01:23:03;;;;;;;5.82;4.03;;;;;;;13.81;100.00;100627.28;682768;28;913;-73
2023/05/05 01:23:53;;;;;;;5.40;3.83;;;;;;;13.72;100.00;100633.56;685274;28;4539;-73
2023/05/05 01:24:38;;;;;;;5.75;3.90;;;;;;;13.71;100.00;100626.56;688977;28;1345;-74
2023/05/05 01:25:20;;;;;;;5.95;3.90;;;;;;;13.68;100.00;100631.91;686522;28;1313;-73
2023/05/05 01:26:18;;;;;;;5.60;3.90;;;;;;;13.67;100.00;100634.56;686011;28;885;-73
2023/05/05 01:27:15;;;;;;;6.35;4.13;;;;;;;13.62;100.00;100632.00;679276;29;4756;-73
2023/05/05 01:27:58;;;;;;;6.43;4.30;;;;;;;13.60;100.00;100639.03;678252;29;1392;-74
2023/05/05 01:28:26;;;;;;;6.20;3.92;;;;;;;13.55;100.00;100639.09;689563;28;4976;-73
2023/05/05 01:29:22;;;;;;;5.65;3.90;;;;;;;13.52;100.00;100635.69;686307;28;1294;-73
2023/05/05 01:30:02;;;;;;;6.05;4.00;;;;;;;13.48;100.00;100642.72;687943;28;4762;-74
2023/05/05 01:30:41;;;;;;;5.25;4.07;;;;;;;13.48;100.00;100640.09;689413;28;1316;-73
2023/05/05 01:31:22;;;;;;;5.97;4.00;;;;;;;13.45;100.00;100642.78;689458;28;905;-74
2023/05/05 01:31:52;;;;;;;6.38;4.03;;;;;;;13.45;100.00;100640.16;689796;28;1351;-73
2023/05/05 01:32:15;;;;;;;6.40;3.72;;;;;;;13.42;100.00;100641.09;684859;28;4338;-76
2023/05/05 01:32:42;;;;;;;5.10;3.83;;;;;;;13.42;100.00;100650.72;686031;28;1407;-72
2023/05/05 01:33:07;;;;;;;6.28;4.13;;;;;;;13.42;100.00;100640.22;688556;28;1196;-72
2023/05/05 01:33:32;;;;;;;4.70;3.70;;;;;;;13.48;100.00;100642.72;684654;28;1208;-72
2023/05/05 01:34:05;;;;;;;5.85;4.05;;;;;;;13.61;100.00;100644.28;682902;28;1224;-73
2023/05/05 01:34:33;;;;;;;6.18;3.90;;;;;;;13.72;100.00;100645.81;688809;28;1252;-72
2023/05/05 01:35:02;;;;;;;5.82;4.20;;;;;;;13.71;100.00;100644.97;690686;28;948;-73
2023/05/05 01:35:31;;;;;;;5.50;3.92;;;;;;;13.63;100.00;100646.88;687949;28;4314;-73
2023/05/05 01:36:01;;;;;;;5.57;4.30;;;;;;;13.58;100.00;100646.94;685336;28;1382;-72
2023/05/05 01:36:30;;;;;;;5.60;3.97;;;;;;;13.54;100.00;100652.25;684791;28;841;-73
2023/05/05 01:36:57;;;;;;;5.15;3.83;;;;;;;13.48;100.00;100650.63;684594;28;2636;-72
2023/05/05 01:37:21;;;;;;;4.88;3.72;;;;;;;13.41;100.00;100649.84;687321;28;1179;-72
2023/05/05 01:37:59;;;;;;;6.32;4.18;;;;;;;13.36;100.00;100646.44;688821;28;1003;-72
2023/05/05 01:38:39;;;;;;;5.55;4.00;;;;;;;13.31;100.00;100647.41;686773;28;4404;-72
2023/05/05 01:39:05;;;;;;;5.57;3.88;;;;;;;13.29;100.00;100639.50;686015;28;1446;-72
2023/05/05 01:39:30;;;;;;;6.30;4.15;;;;;;;13.27;100.00;100641.31;686888;28;2372;-72
2023/05/05 01:39:56;;;;;;;5.50;3.95;;;;;;;13.23;100.00;100645.72;685858;28;1280;-72
2023/05/05 01:40:21;;;;;;;7.10;4.03;;;;;;;13.25;100.00;100648.31;688289;28;1386;-72
2023/05/05 01:40:47;;;;;;;5.22;4.00;;;;;;;13.23;100.00;100640.47;689577;28;1239;-72
2023/05/05 01:41:16;;;;;;;5.10;4.00;;;;;;;13.24;100.00;100647.47;690528;28;1157;-73
2023/05/05 01:41:46;;;;;;;7.18;3.90;;;;;;;13.24;100.00;100646.63;692802;28;4782;-72
2023/05/05 01:42:12;;;;;;;5.53;4.00;;;;;;;13.19;100.00;100641.41;690033;28;2331;-72
2023/05/05 01:42:36;;;;;;;5.38;4.00;;;;;;;13.19;100.00;100648.44;686903;28;1253;-73
2023/05/05 01:42:59;;;;;;;6.10;4.07;;;;;;;13.17;100.00;100656.34;683636;28;1353;-73
2023/05/05 01:43:24;;;;;;;5.68;4.05;;;;;;;13.19;100.00;100646.66;681625;28;993;-72
2023/05/05 01:43:49;;;;;;;5.45;4.10;;;;;;;13.20;100.00;100650.19;685113;28;1465;-72
2023/05/05 01:44:14;;;;;;;6.28;4.18;;;;;;;13.18;100.00;100647.59;686936;28;1016;-72
2023/05/05 01:44:37;;;;;;;5.75;4.05;;;;;;;13.19;100.00;100645.81;690022;28;4916;-73
2023/05/05 01:44:58;;;;;;;5.20;3.90;;;;;;;13.17;100.00;100645.84;691020;28;967;-72
2023/05/05 01:45:20;;;;;;;5.40;3.80;;;;;;;13.16;100.00;100643.25;691811;28;1235;-73
2023/05/05 01:45:43;;;;;;;5.85;4.25;;;;;;;13.13;100.00;100649.41;691543;28;821;-72
2023/05/05 01:46:06;;;;;;;5.53;3.95;;;;;;;13.13;100.00;100648.56;687138;28;1626;-72
2023/05/05 01:46:27;;;;;;;5.57;4.00;;;;;;;13.12;100.00;100642.41;683447;28;2374;-73
2023/05/05 01:46:50;;;;;;;6.30;4.18;;;;;;;13.09;100.00;100645.94;687205;28;1186;-73
2023/05/05 01:47:13;;;;;;;5.85;4.05;;;;;;;13.10;100.00;100654.72;687533;28;1383;-72
2023/05/05 01:47:36;;;;;;;5.25;3.90;;;;;;;13.09;100.00;100645.94;689382;28;4820;-72
2023/05/05 01:47:58;;;;;;;6.75;4.28;;;;;;;13.07;100.00;100646.84;688928;28;1240;-72
2023/05/05 01:48:20;;;;;;;6.18;4.18;;;;;;;13.04;100.00;100639.94;682942;28;1334;-73
2023/05/05 01:48:41;;;;;;;6.35;4.30;;;;;;;13.06;100.00;100645.16;685037;28;892;-72
2023/05/05 01:49:04;;;;;;;5.47;4.07;;;;;;;13.05;100.00;100644.25;688543;28;2306;-72
2023/05/05 01:49:27;;;;;;;5.53;4.00;;;;;;;13.04;100.00;100646.91;689932;28;1365;-72
2023/05/05 01:49:48;;;;;;;5.65;4.05;;;;;;;13.04;100.00;100649.53;687493;28;1087;-72
2023/05/05 01:50:11;;;;;;;5.47;4.13;;;;;;;13.04;100.00;100646.91;688017;28;1425;-72
2023/05/05 01:50:32;;;;;;;7.00;4.28;;;;;;;13.02;100.00;100651.34;686773;28;4367;-72
2023/05/05 01:50:53;;;;;;;6.55;4.30;;;;;;;13.00;100.00;100648.75;684781;28;1981;-73
2023/05/05 01:51:16;;;;;;;5.47;3.95;;;;;;;12.97;100.00;100648.75;685636;28;1296;-72
2023/05/05 01:51:38;;;;;;;5.75;4.10;;;;;;;12.95;100.00;100647.94;687988;28;1292;-72
2023/05/05 01:52:02;;;;;;;7.28;4.32;;;;;;;12.94;100.00;100654.06;684562;28;955;-73
2023/05/05 01:52:23;;;;;;;7.93;4.40;;;;;;;12.93;100.00;100655.81;686288;28;893;-73
2023/05/05 01:52:45;;;;;;;5.68;3.90;;;;;;;12.93;100.00;100654.94;687547;28;1122;-72
2023/05/05 01:53:08;;;;;;;6.15;4.03;;;;;;;12.93;100.00;100653.19;682517;28;2400;-72
2023/05/05 01:53:30;;;;;;;6.75;4.20;;;;;;;12.95;100.00;100656.66;684995;28;4348;-72
2023/05/05 01:53:53;;;;;;;6.28;4.15;;;;;;;12.93;100.00;100663.69;684895;28;1326;-73
2023/05/05 01:54:15;;;;;;;5.50;4.20;;;;;;;12.91;100.00;100644.47;683882;28;1577;-72
2023/05/05 01:54:38;;;;;;;6.30;4.13;;;;;;;12.89;100.00;100654.13;682398;28;909;-73
2023/05/05 01:55:01;;;;;;;6.20;4.43;;;;;;;12.89;100.00;100662.00;680519;28;1369;-73